sensor_id;sensor_type;location;lat;lon;timestamp;temperature;humidity
8711;DHT22;4392;47.400;8.062;2023-04-12T00:01:07;11.00;99.90
8711;DHT22;4392;47.400;8.062;2023-04-12T00:03:39;11.20;99.90
8711;DHT22;4392;47.400;8.062;2023-04-12T00:06:05;11.40;99.90
8711;DHT22;4392;47.400;8.062;2023-04-12T00:08:32;11.40;99.90
8711;DHT22;4392;47.400;8.062;2023-04-12T00:11:02;11.40;99.90
8711;DHT22;4392;47.400;8.062;2023-04-12T00:13:28;11.50;99.90
8711;DHT22;4392;47.400;8.062;2023-04-12T00:15:54;11.50;99.90
8711;DHT22;4392;47.400;8.062;2023-04-12T00:18:20;11.50;99.90
8711;DHT22;4392;47.400;8.062;2023-04-12T00:20:52;11.50;99.90
8711;DHT22;4392;47.400;8.062;2023-04-12T00:23:17;11.50;99.90
8711;DHT22;4392;47.400;8.062;2023-04-12T00:25:44;11.50;99.90
8711;DHT22;4392;47.400;8.062;2023-04-12T00:28:09;11.40;99.90
8711;DHT22;4392;47.400;8.062;2023-04-12T00:30:42;11.40;99.90
8711;DHT22;4392;47.400;8.062;2023-04-12T00:33:08;11.40;99.90
8711;DHT22;4392;47.400;8.062;2023-04-12T00:35:34;11.40;99.90
8711;DHT22;4392;47.400;8.062;2023-04-12T00:37:59;11.40;99.90
8711;DHT22;4392;47.400;8.062;2023-04-12T00:40:32;11.30;99.90
8711;DHT22;4392;47.400;8.062;2023-04-12T00:42:57;11.40;99.90
8711;DHT22;4392;47.400;8.062;2023-04-12T00:45:23;11.50;99.90
8711;DHT22;4392;47.400;8.062;2023-04-12T00:47:49;11.50;99.90
8711;DHT22;4392;47.400;8.062;2023-04-12T00:50:15;11.50;99.90
8711;DHT22;4392;47.400;8.062;2023-04-12T00:52:47;11.40;99.90
8711;DHT22;4392;47.400;8.062;2023-04-12T00:55:13;11.40;99.90
8711;DHT22;4392;47.400;8.062;2023-04-12T00:57:43;11.40;99.90
8711;DHT22;4392;47.400;8.062;2023-04-12T01:00:10;11.30;99.90
8711;DHT22;4392;47.400;8.062;2023-04-12T01:02:40;11.30;99.90
8711;DHT22;4392;47.400;8.062;2023-04-12T01:05:17;11.30;99.90
8711;DHT22;4392;47.400;8.062;2023-04-12T01:08:04;11.30;99.90
8711;DHT22;4392;47.400;8.062;2023-04-12T01:13:30;11.10;99.90
8711;DHT22;4392;47.400;8.062;2023-04-12T01:16:15;11.20;99.90
8711;DHT22;4392;47.400;8.062;2023-04-12T01:18:47;11.20;99.90
8711;DHT22;4392;47.400;8.062;2023-04-12T01:26:46;11.20;99.90
8711;DHT22;4392;47.400;8.062;2023-04-12T01:29:21;11.20;99.90
8711;DHT22;4392;47.400;8.062;2023-04-12T01:32:00;11.20;99.90
8711;DHT22;4392;47.400;8.062;2023-04-12T01:34:34;11.30;99.90
8711;DHT22;4392;47.400;8.062;2023-04-12T01:37:03;11.20;99.90
8711;DHT22;4392;47.400;8.062;2023-04-12T01:39:36;11.20;99.90
8711;DHT22;4392;47.400;8.062;2023-04-12T01:42:02;11.20;99.90
8711;DHT22;4392;47.400;8.062;2023-04-12T01:44:30;11.20;99.90
8711;DHT22;4392;47.400;8.062;2023-04-12T01:47:02;11.20;99.90
8711;DHT22;4392;47.400;8.062;2023-04-12T01:49:37;11.30;99.90
8711;DHT22;4392;47.400;8.062;2023-04-12T01:52:13;11.10;99.90
8711;DHT22;4392;47.400;8.062;2023-04-12T01:54:42;11.20;99.90
8711;DHT22;4392;47.400;8.062;2023-04-12T01:57:15;11.20;99.90
8711;DHT22;4392;47.400;8.062;2023-04-12T01:59:43;11.10;99.90
8711;DHT22;4392;47.400;8.062;2023-04-12T02:02:16;11.10;99.90
8711;DHT22;4392;47.400;8.062;2023-04-12T02:04:50;10.90;99.90
8711;DHT22;4392;47.400;8.062;2023-04-12T02:07:31;11.00;99.90
8711;DHT22;4392;47.400;8.062;2023-04-12T02:09:59;11.10;99.90
8711;DHT22;4392;47.400;8.062;2023-04-12T02:12:28;11.10;99.90
8711;DHT22;4392;47.400;8.062;2023-04-12T02:14:54;11.20;99.90
8711;DHT22;4392;47.400;8.062;2023-04-12T02:17:21;11.10;99.90
8711;DHT22;4392;47.400;8.062;2023-04-12T02:19:47;10.90;99.90
8711;DHT22;4392;47.400;8.062;2023-04-12T02:22:13;11.00;99.90
8711;DHT22;4392;47.400;8.062;2023-04-12T02:24:41;11.10;99.90
8711;DHT22;4392;47.400;8.062;2023-04-12T02:27:07;11.10;99.90
8711;DHT22;4392;47.400;8.062;2023-04-12T02:29:33;11.20;99.90
8711;DHT22;4392;47.400;8.062;2023-04-12T02:32:05;11.10;99.90
8711;DHT22;4392;47.400;8.062;2023-04-12T02:34:33;10.90;99.90
8711;DHT22;4392;47.400;8.062;2023-04-12T02:37:04;11.00;99.90
8711;DHT22;4392;47.400;8.062;2023-04-12T02:39:31;11.00;99.90
8711;DHT22;4392;47.400;8.062;2023-04-12T02:41:59;11.10;99.90
8711;DHT22;4392;47.400;8.062;2023-04-12T02:44:28;11.10;99.90
8711;DHT22;4392;47.400;8.062;2023-04-12T02:46:55;11.10;99.90
8711;DHT22;4392;47.400;8.062;2023-04-12T02:49:20;11.10;99.90
8711;DHT22;4392;47.400;8.062;2023-04-12T02:51:46;11.10;99.90
8711;DHT22;4392;47.400;8.062;2023-04-12T02:54:12;11.10;99.90
8711;DHT22;4392;47.400;8.062;2023-04-12T02:56:43;11.10;99.90
8711;DHT22;4392;47.400;8.062;2023-04-12T02:59:09;11.10;99.90
8711;DHT22;4392;47.400;8.062;2023-04-12T03:01:35;11.00;99.90
8711;DHT22;4392;47.400;8.062;2023-04-12T03:04:12;11.00;99.90
8711;DHT22;4392;47.400;8.062;2023-04-12T03:06:37;11.00;99.90
8711;DHT22;4392;47.400;8.062;2023-04-12T03:09:19;11.00;99.90
8711;DHT22;4392;47.400;8.062;2023-04-12T03:11:45;10.90;99.90
8711;DHT22;4392;47.400;8.062;2023-04-12T03:14:11;11.00;99.90
8711;DHT22;4392;47.400;8.062;2023-04-12T03:16:38;11.00;99.90
8711;DHT22;4392;47.400;8.062;2023-04-12T03:19:06;11.00;99.90
8711;DHT22;4392;47.400;8.062;2023-04-12T03:21:35;11.00;99.90
8711;DHT22;4392;47.400;8.062;2023-04-12T03:24:01;11.10;99.90
8711;DHT22;4392;47.400;8.062;2023-04-12T03:26:28;11.10;99.90
8711;DHT22;4392;47.400;8.062;2023-04-12T03:28:59;11.10;99.90
8711;DHT22;4392;47.400;8.062;2023-04-12T03:31:38;11.00;99.90
8711;DHT22;4392;47.400;8.062;2023-04-12T03:34:04;10.80;99.90
8711;DHT22;4392;47.400;8.062;2023-04-12T03:36:35;10.70;99.90
8711;DHT22;4392;47.400;8.062;2023-04-12T03:39:02;10.90;99.90
8711;DHT22;4392;47.400;8.062;2023-04-12T03:41:28;10.80;99.90
8711;DHT22;4392;47.400;8.062;2023-04-12T03:43:56;10.90;99.90
8711;DHT22;4392;47.400;8.062;2023-04-12T03:46:22;10.90;99.90
8711;DHT22;4392;47.400;8.062;2023-04-12T03:48:48;10.90;99.90
8711;DHT22;4392;47.400;8.062;2023-04-12T03:51:15;10.90;99.90
8711;DHT22;4392;47.400;8.062;2023-04-12T03:53:43;10.90;99.90
8711;DHT22;4392;47.400;8.062;2023-04-12T03:56:12;10.90;99.90
8711;DHT22;4392;47.400;8.062;2023-04-12T03:58:38;10.90;99.90
8711;DHT22;4392;47.400;8.062;2023-04-12T04:01:06;11.00;99.90
8711;DHT22;4392;47.400;8.062;2023-04-12T04:03:42;11.00;99.90
8711;DHT22;4392;47.400;8.062;2023-04-12T04:06:11;11.00;99.90
8711;DHT22;4392;47.400;8.062;2023-04-12T04:08:37;11.00;99.90
8711;DHT22;4392;47.400;8.062;2023-04-12T04:11:04;11.00;99.90
8711;DHT22;4392;47.400;8.062;2023-04-12T04:13:29;11.00;99.90
8711;DHT22;4392;47.400;8.062;2023-04-12T04:16:10;10.90;99.90
8711;DHT22;4392;47.400;8.062;2023-04-12T04:18:38;10.90;99.90
8711;DHT22;4392;47.400;8.062;2023-04-12T04:21:07;10.90;99.90
8711;DHT22;4392;47.400;8.062;2023-04-12T04:23:33;10.90;99.90
8711;DHT22;4392;47.400;8.062;2023-04-12T04:26:07;11.00;99.90
8711;DHT22;4392;47.400;8.062;2023-04-12T04:28:41;10.90;99.90
8711;DHT22;4392;47.400;8.062;2023-04-12T04:31:10;10.90;99.90
8711;DHT22;4392;47.400;8.062;2023-04-12T04:33:41;10.90;99.90
8711;DHT22;4392;47.400;8.062;2023-04-12T04:36:12;10.90;99.90
8711;DHT22;4392;47.400;8.062;2023-04-12T04:38:38;10.90;99.90
8711;DHT22;4392;47.400;8.062;2023-04-12T04:41:08;10.90;99.90
8711;DHT22;4392;47.400;8.062;2023-04-12T04:43:34;10.90;99.90
8711;DHT22;4392;47.400;8.062;2023-04-12T04:46:04;10.90;99.90
8711;DHT22;4392;47.400;8.062;2023-04-12T04:48:30;10.90;99.90
8711;DHT22;4392;47.400;8.062;2023-04-12T04:50:59;10.80;99.90
8711;DHT22;4392;47.400;8.062;2023-04-12T04:53:25;10.80;99.90
8711;DHT22;4392;47.400;8.062;2023-04-12T04:55:58;10.90;99.90
8711;DHT22;4392;47.400;8.062;2023-04-12T04:58:26;10.80;99.90
8711;DHT22;4392;47.400;8.062;2023-04-12T05:00:55;10.80;99.90
8711;DHT22;4392;47.400;8.062;2023-04-12T05:03:30;10.80;99.90
8711;DHT22;4392;47.400;8.062;2023-04-12T05:05:59;10.70;99.90
8711;DHT22;4392;47.400;8.062;2023-04-12T05:08:29;10.70;99.90
8711;DHT22;4392;47.400;8.062;2023-04-12T05:10:58;10.80;99.90
8711;DHT22;4392;47.400;8.062;2023-04-12T05:13:24;10.80;99.90
8711;DHT22;4392;47.400;8.062;2023-04-12T05:15:50;10.80;99.90
8711;DHT22;4392;47.400;8.062;2023-04-12T05:18:18;10.80;99.90
8711;DHT22;4392;47.400;8.062;2023-04-12T05:20:50;10.80;99.90
8711;DHT22;4392;47.400;8.062;2023-04-12T05:23:18;10.90;99.90
8711;DHT22;4392;47.400;8.062;2023-04-12T05:25:47;10.90;99.90
8711;DHT22;4392;47.400;8.062;2023-04-12T05:28:15;10.80;99.90
8711;DHT22;4392;47.400;8.062;2023-04-12T05:30:44;10.80;99.90
8711;DHT22;4392;47.400;8.062;2023-04-12T05:33:10;10.80;99.90
8711;DHT22;4392;47.400;8.062;2023-04-12T05:35:37;10.70;99.90
8711;DHT22;4392;47.400;8.062;2023-04-12T05:38:02;10.60;99.90
8711;DHT22;4392;47.400;8.062;2023-04-12T05:40:29;10.70;99.90
8711;DHT22;4392;47.400;8.062;2023-04-12T05:42:59;10.80;99.90
8711;DHT22;4392;47.400;8.062;2023-04-12T05:45:27;10.80;99.90
8711;DHT22;4392;47.400;8.062;2023-04-12T05:47:54;10.80;99.90
8711;DHT22;4392;47.400;8.062;2023-04-12T05:50:20;10.90;99.90
8711;DHT22;4392;47.400;8.062;2023-04-12T05:52:54;10.90;99.90
8711;DHT22;4392;47.400;8.062;2023-04-12T05:55:20;10.90;99.90
8711;DHT22;4392;47.400;8.062;2023-04-12T05:57:52;10.80;99.90
8711;DHT22;4392;47.400;8.062;2023-04-12T06:00:19;10.90;99.90
8711;DHT22;4392;47.400;8.062;2023-04-12T06:02:51;10.90;99.90
8711;DHT22;4392;47.400;8.062;2023-04-12T06:05:16;10.80;99.90
8711;DHT22;4392;47.400;8.062;2023-04-12T06:07:44;10.80;99.90
8711;DHT22;4392;47.400;8.062;2023-04-12T06:10:17;10.90;99.90
8711;DHT22;4392;47.400;8.062;2023-04-12T06:12:46;10.90;99.90
8711;DHT22;4392;47.400;8.062;2023-04-12T06:15:17;10.80;99.90
8711;DHT22;4392;47.400;8.062;2023-04-12T06:17:47;11.00;99.90
8711;DHT22;4392;47.400;8.062;2023-04-12T06:20:20;11.00;99.90
8711;DHT22;4392;47.400;8.062;2023-04-12T06:22:48;11.00;99.90
8711;DHT22;4392;47.400;8.062;2023-04-12T06:25:16;10.90;99.90
8711;DHT22;4392;47.400;8.062;2023-04-12T06:27:42;10.70;99.90
8711;DHT22;4392;47.400;8.062;2023-04-12T06:30:08;10.60;99.90
8711;DHT22;4392;47.400;8.062;2023-04-12T06:32:34;10.70;99.90
8711;DHT22;4392;47.400;8.062;2023-04-12T06:35:05;10.70;99.90
8711;DHT22;4392;47.400;8.062;2023-04-12T06:37:30;10.70;99.90
8711;DHT22;4392;47.400;8.062;2023-04-12T06:39:56;10.70;99.90
8711;DHT22;4392;47.400;8.062;2023-04-12T06:42:22;10.60;99.90
8711;DHT22;4392;47.400;8.062;2023-04-12T06:44:47;10.80;99.90
8711;DHT22;4392;47.400;8.062;2023-04-12T06:47:13;10.90;99.90
8711;DHT22;4392;47.400;8.062;2023-04-12T06:49:40;11.00;99.90
8711;DHT22;4392;47.400;8.062;2023-04-12T06:52:08;10.80;99.90
8711;DHT22;4392;47.400;8.062;2023-04-12T06:54:38;10.90;99.90
8711;DHT22;4392;47.400;8.062;2023-04-12T06:57:10;11.00;99.90
8711;DHT22;4392;47.400;8.062;2023-04-12T06:59:36;11.20;99.90
8711;DHT22;4392;47.400;8.062;2023-04-12T07:02:04;11.20;99.90
8711;DHT22;4392;47.400;8.062;2023-04-12T07:04:36;11.30;99.90
8711;DHT22;4392;47.400;8.062;2023-04-12T07:07:01;10.90;99.90
8711;DHT22;4392;47.400;8.062;2023-04-12T07:09:33;10.90;99.90
8711;DHT22;4392;47.400;8.062;2023-04-12T07:11:59;10.90;99.90
8711;DHT22;4392;47.400;8.062;2023-04-12T07:14:27;11.00;99.90
8711;DHT22;4392;47.400;8.062;2023-04-12T07:16:57;11.00;99.90
8711;DHT22;4392;47.400;8.062;2023-04-12T07:19:26;10.90;99.90
8711;DHT22;4392;47.400;8.062;2023-04-12T07:22:02;10.80;99.90
8711;DHT22;4392;47.400;8.062;2023-04-12T07:24:28;10.90;99.90
8711;DHT22;4392;47.400;8.062;2023-04-12T07:26:53;11.10;99.90
8711;DHT22;4392;47.400;8.062;2023-04-12T07:29:22;11.20;99.90
8711;DHT22;4392;47.400;8.062;2023-04-12T07:31:48;11.30;99.90
8711;DHT22;4392;47.400;8.062;2023-04-12T07:34:13;11.30;99.90
8711;DHT22;4392;47.400;8.062;2023-04-12T07:36:39;11.20;99.90
8711;DHT22;4392;47.400;8.062;2023-04-12T07:39:08;11.10;99.90
8711;DHT22;4392;47.400;8.062;2023-04-12T07:41:39;11.30;99.90
8711;DHT22;4392;47.400;8.062;2023-04-12T07:44:08;11.40;99.90
8711;DHT22;4392;47.400;8.062;2023-04-12T07:46:34;11.30;99.90
8711;DHT22;4392;47.400;8.062;2023-04-12T07:48:59;11.40;99.90
8711;DHT22;4392;47.400;8.062;2023-04-12T07:51:25;11.50;99.90
8711;DHT22;4392;47.400;8.062;2023-04-12T07:53:51;11.70;99.90
8711;DHT22;4392;47.400;8.062;2023-04-12T07:56:21;11.80;99.90
8711;DHT22;4392;47.400;8.062;2023-04-12T07:58:47;11.90;99.90
8711;DHT22;4392;47.400;8.062;2023-04-12T08:01:14;11.90;99.90
8711;DHT22;4392;47.400;8.062;2023-04-12T08:03:46;11.90;99.90
8711;DHT22;4392;47.400;8.062;2023-04-12T08:06:14;11.80;99.90
8711;DHT22;4392;47.400;8.062;2023-04-12T08:08:44;11.90;99.90
8711;DHT22;4392;47.400;8.062;2023-04-12T08:11:13;11.80;99.90
8711;DHT22;4392;47.400;8.062;2023-04-12T08:13:39;12.00;99.90
8711;DHT22;4392;47.400;8.062;2023-04-12T08:16:06;12.00;99.90
8711;DHT22;4392;47.400;8.062;2023-04-12T08:18:36;12.10;99.90
8711;DHT22;4392;47.400;8.062;2023-04-12T08:21:02;12.20;99.90
8711;DHT22;4392;47.400;8.062;2023-04-12T08:23:30;12.30;99.90
8711;DHT22;4392;47.400;8.062;2023-04-12T08:26:02;12.30;99.90
8711;DHT22;4392;47.400;8.062;2023-04-12T08:28:30;12.50;99.90
8711;DHT22;4392;47.400;8.062;2023-04-12T08:30:58;12.30;99.90
8711;DHT22;4392;47.400;8.062;2023-04-12T08:33:24;12.30;99.90
8711;DHT22;4392;47.400;8.062;2023-04-12T08:35:50;12.50;99.90
8711;DHT22;4392;47.400;8.062;2023-04-12T08:38:17;12.60;99.90
8711;DHT22;4392;47.400;8.062;2023-04-12T08:40:43;12.70;99.90
8711;DHT22;4392;47.400;8.062;2023-04-12T08:43:17;12.60;99.90
8711;DHT22;4392;47.400;8.062;2023-04-12T08:45:43;12.70;99.90
8711;DHT22;4392;47.400;8.062;2023-04-12T08:48:15;12.80;99.90
8711;DHT22;4392;47.400;8.062;2023-04-12T08:50:45;12.90;99.90
8711;DHT22;4392;47.400;8.062;2023-04-12T08:53:14;13.00;99.90
8711;DHT22;4392;47.400;8.062;2023-04-12T08:55:43;13.00;99.90
8711;DHT22;4392;47.400;8.062;2023-04-12T08:58:16;13.10;99.90
8711;DHT22;4392;47.400;8.062;2023-04-12T09:00:43;13.00;99.90
8711;DHT22;4392;47.400;8.062;2023-04-12T09:03:10;12.90;99.90
8711;DHT22;4392;47.400;8.062;2023-04-12T09:05:42;12.80;99.90
8711;DHT22;4392;47.400;8.062;2023-04-12T09:08:07;12.90;99.90
8711;DHT22;4392;47.400;8.062;2023-04-12T09:10:35;13.00;99.90
8711;DHT22;4392;47.400;8.062;2023-04-12T09:13:05;13.00;99.90
8711;DHT22;4392;47.400;8.062;2023-04-12T09:15:33;13.20;99.90
8711;DHT22;4392;47.400;8.062;2023-04-12T09:18:10;13.40;99.90
8711;DHT22;4392;47.400;8.062;2023-04-12T09:20:44;13.50;99.90
8711;DHT22;4392;47.400;8.062;2023-04-12T09:23:22;13.50;98.60
8711;DHT22;4392;47.400;8.062;2023-04-12T09:25:54;13.60;96.60
8711;DHT22;4392;47.400;8.062;2023-04-12T09:28:25;13.60;96.00
8711;DHT22;4392;47.400;8.062;2023-04-12T09:31:00;13.60;96.40
8711;DHT22;4392;47.400;8.062;2023-04-12T09:33:36;13.70;95.60
8711;DHT22;4392;47.400;8.062;2023-04-12T09:36:06;13.70;95.50
8711;DHT22;4392;47.400;8.062;2023-04-12T09:38:38;13.70;95.10
8711;DHT22;4392;47.400;8.062;2023-04-12T09:41:20;13.70;94.80
8711;DHT22;4392;47.400;8.062;2023-04-12T09:43:54;13.60;96.00
8711;DHT22;4392;47.400;8.062;2023-04-12T09:46:22;13.70;95.60
8711;DHT22;4392;47.400;8.062;2023-04-12T09:48:50;13.70;95.20
8711;DHT22;4392;47.400;8.062;2023-04-12T09:51:31;13.80;95.50
8711;DHT22;4392;47.400;8.062;2023-04-12T09:53:59;13.70;95.30
8711;DHT22;4392;47.400;8.062;2023-04-12T09:56:32;13.70;94.80
8711;DHT22;4392;47.400;8.062;2023-04-12T09:59:01;13.60;95.10
8711;DHT22;4392;47.400;8.062;2023-04-12T10:01:37;13.60;95.30
8711;DHT22;4392;47.400;8.062;2023-04-12T10:04:10;13.60;94.70
8711;DHT22;4392;47.400;8.062;2023-04-12T10:06:39;13.50;95.00
8711;DHT22;4392;47.400;8.062;2023-04-12T10:09:11;13.50;95.90
8711;DHT22;4392;47.400;8.062;2023-04-12T10:11:39;13.40;98.60
8711;DHT22;4392;47.400;8.062;2023-04-12T10:14:11;13.30;99.90
8711;DHT22;4392;47.400;8.062;2023-04-12T10:16:39;13.30;99.90
8711;DHT22;4392;47.400;8.062;2023-04-12T10:19:10;13.30;99.90
8711;DHT22;4392;47.400;8.062;2023-04-12T10:21:37;13.30;99.90
8711;DHT22;4392;47.400;8.062;2023-04-12T10:24:04;13.20;98.50
8711;DHT22;4392;47.400;8.062;2023-04-12T10:26:40;13.10;99.90
8711;DHT22;4392;47.400;8.062;2023-04-12T10:29:27;13.10;99.90
8711;DHT22;4392;47.400;8.062;2023-04-12T10:32:38;13.10;99.90
8711;DHT22;4392;47.400;8.062;2023-04-12T10:34:52;13.00;99.90
8711;DHT22;4392;47.400;8.062;2023-04-12T10:40:06;12.80;99.90
8711;DHT22;4392;47.400;8.062;2023-04-12T10:42:40;12.80;99.90
8711;DHT22;4392;47.400;8.062;2023-04-12T10:48:01;12.90;99.90
8711;DHT22;4392;47.400;8.062;2023-04-12T10:50:34;12.90;99.90
8711;DHT22;4392;47.400;8.062;2023-04-12T10:55:38;13.00;99.90
8711;DHT22;4392;47.400;8.062;2023-04-12T10:58:08;13.10;99.90
8711;DHT22;4392;47.400;8.062;2023-04-12T11:03:22;13.30;99.90
8711;DHT22;4392;47.400;8.062;2023-04-12T11:05:58;13.10;99.90
8711;DHT22;4392;47.400;8.062;2023-04-12T11:08:29;13.20;99.90
8711;DHT22;4392;47.400;8.062;2023-04-12T11:11:02;13.30;99.90
8711;DHT22;4392;47.400;8.062;2023-04-12T11:13:37;13.40;99.90
8711;DHT22;4392;47.400;8.062;2023-04-12T11:16:04;13.50;99.90
8711;DHT22;4392;47.400;8.062;2023-04-12T11:18:42;13.60;99.90
8711;DHT22;4392;47.400;8.062;2023-04-12T11:21:10;13.70;99.90
8711;DHT22;4392;47.400;8.062;2023-04-12T11:23:36;13.60;99.90
8711;DHT22;4392;47.400;8.062;2023-04-12T11:26:04;13.50;99.90
8711;DHT22;4392;47.400;8.062;2023-04-12T11:28:30;13.60;99.90
8711;DHT22;4392;47.400;8.062;2023-04-12T11:30:57;13.60;99.90
8711;DHT22;4392;47.400;8.062;2023-04-12T11:33:36;13.70;99.90
8711;DHT22;4392;47.400;8.062;2023-04-12T11:36:11;13.80;99.90
8711;DHT22;4392;47.400;8.062;2023-04-12T11:38:38;13.80;99.90
8711;DHT22;4392;47.400;8.062;2023-04-12T11:41:06;13.80;99.90
8711;DHT22;4392;47.400;8.062;2023-04-12T11:43:36;13.90;99.90
8711;DHT22;4392;47.400;8.062;2023-04-12T11:46:03;13.90;99.90
8711;DHT22;4392;47.400;8.062;2023-04-12T11:48:29;13.90;99.90
8711;DHT22;4392;47.400;8.062;2023-04-12T11:51:00;13.90;99.90
8711;DHT22;4392;47.400;8.062;2023-04-12T11:53:51;13.90;99.90
8711;DHT22;4392;47.400;8.062;2023-04-12T11:56:16;14.00;99.90
8711;DHT22;4392;47.400;8.062;2023-04-12T11:58:48;13.90;99.90
8711;DHT22;4392;47.400;8.062;2023-04-12T12:01:15;13.90;99.90
8711;DHT22;4392;47.400;8.062;2023-04-12T12:03:41;13.80;99.90
8711;DHT22;4392;47.400;8.062;2023-04-12T12:06:08;13.80;99.90
8711;DHT22;4392;47.400;8.062;2023-04-12T12:08:42;13.80;99.90
8711;DHT22;4392;47.400;8.062;2023-04-12T12:11:08;13.70;99.90
8711;DHT22;4392;47.400;8.062;2023-04-12T12:13:51;13.70;99.90
8711;DHT22;4392;47.400;8.062;2023-04-12T12:16:19;13.80;99.90
8711;DHT22;4392;47.400;8.062;2023-04-12T12:18:50;13.80;99.90
8711;DHT22;4392;47.400;8.062;2023-04-12T12:21:19;13.70;99.90
8711;DHT22;4392;47.400;8.062;2023-04-12T12:23:46;13.80;99.90
8711;DHT22;4392;47.400;8.062;2023-04-12T12:26:23;13.90;99.90
8711;DHT22;4392;47.400;8.062;2023-04-12T12:28:54;14.00;99.90
8711;DHT22;4392;47.400;8.062;2023-04-12T12:31:27;14.00;99.60
8711;DHT22;4392;47.400;8.062;2023-04-12T12:33:54;14.10;97.40
8711;DHT22;4392;47.400;8.062;2023-04-12T12:36:33;14.20;98.00
8711;DHT22;4392;47.400;8.062;2023-04-12T12:39:07;14.20;97.90
8711;DHT22;4392;47.400;8.062;2023-04-12T12:41:34;14.30;97.90
8711;DHT22;4392;47.400;8.062;2023-04-12T12:44:09;14.30;98.00
8711;DHT22;4392;47.400;8.062;2023-04-12T12:46:35;14.30;99.10
8711;DHT22;4392;47.400;8.062;2023-04-12T12:49:07;14.30;98.90
8711;DHT22;4392;47.400;8.062;2023-04-12T12:51:33;14.30;99.90
8711;DHT22;4392;47.400;8.062;2023-04-12T12:54:01;14.40;99.70
8711;DHT22;4392;47.400;8.062;2023-04-12T12:56:32;14.50;99.90
8711;DHT22;4392;47.400;8.062;2023-04-12T12:59:00;14.50;99.80
8711;DHT22;4392;47.400;8.062;2023-04-12T13:01:26;14.50;98.60
8711;DHT22;4392;47.400;8.062;2023-04-12T13:03:55;14.80;99.90
8711;DHT22;4392;47.400;8.062;2023-04-12T13:06:23;14.70;99.10
8711;DHT22;4392;47.400;8.062;2023-04-12T13:08:59;14.60;98.80
8711;DHT22;4392;47.400;8.062;2023-04-12T13:11:24;14.50;98.50
8711;DHT22;4392;47.400;8.062;2023-04-12T13:13:50;14.50;99.40
8711;DHT22;4392;47.400;8.062;2023-04-12T13:16:16;14.50;99.70
8711;DHT22;4392;47.400;8.062;2023-04-12T13:18:42;14.50;99.90
8711;DHT22;4392;47.400;8.062;2023-04-12T13:21:11;14.50;99.00
8711;DHT22;4392;47.400;8.062;2023-04-12T13:23:42;14.60;98.50
8711;DHT22;4392;47.400;8.062;2023-04-12T13:26:11;14.60;97.90
8711;DHT22;4392;47.400;8.062;2023-04-12T13:28:37;14.70;99.90
8711;DHT22;4392;47.400;8.062;2023-04-12T13:31:05;15.30;99.40
8711;DHT22;4392;47.400;8.062;2023-04-12T13:33:38;15.50;99.90
8711;DHT22;4392;47.400;8.062;2023-04-12T13:36:11;15.40;96.40
8711;DHT22;4392;47.400;8.062;2023-04-12T13:38:36;15.10;96.50
8711;DHT22;4392;47.400;8.062;2023-04-12T13:41:11;15.00;96.90
8711;DHT22;4392;47.400;8.062;2023-04-12T13:43:37;14.90;97.50
8711;DHT22;4392;47.400;8.062;2023-04-12T13:46:03;14.80;97.10
8711;DHT22;4392;47.400;8.062;2023-04-12T13:48:29;14.80;97.10
8711;DHT22;4392;47.400;8.062;2023-04-12T13:50:58;14.80;97.10
8711;DHT22;4392;47.400;8.062;2023-04-12T13:53:24;14.60;97.20
8711;DHT22;4392;47.400;8.062;2023-04-12T13:55:52;14.70;97.30
8711;DHT22;4392;47.400;8.062;2023-04-12T13:58:24;14.70;99.10
8711;DHT22;4392;47.400;8.062;2023-04-12T14:00:51;15.10;99.30
8711;DHT22;4392;47.400;8.062;2023-04-12T14:03:21;15.20;97.60
8711;DHT22;4392;47.400;8.062;2023-04-12T14:05:47;15.20;97.00
8711;DHT22;4392;47.400;8.062;2023-04-12T14:08:12;15.40;97.40
8711;DHT22;4392;47.400;8.062;2023-04-12T14:10:38;15.30;99.90
8711;DHT22;4392;47.400;8.062;2023-04-12T14:13:04;15.60;99.90
8711;DHT22;4392;47.400;8.062;2023-04-12T14:15:30;15.60;97.60
8711;DHT22;4392;47.400;8.062;2023-04-12T14:17:56;15.20;98.40
8711;DHT22;4392;47.400;8.062;2023-04-12T14:20:21;14.90;99.20
8711;DHT22;4392;47.400;8.062;2023-04-12T14:22:51;14.80;99.90
8711;DHT22;4392;47.400;8.062;2023-04-12T14:25:17;14.60;99.90
8711;DHT22;4392;47.400;8.062;2023-04-12T14:27:43;14.60;99.90
8711;DHT22;4392;47.400;8.062;2023-04-12T14:30:09;14.60;99.90
8711;DHT22;4392;47.400;8.062;2023-04-12T14:32:36;14.40;99.90
8711;DHT22;4392;47.400;8.062;2023-04-12T14:35:06;14.30;99.90
8711;DHT22;4392;47.400;8.062;2023-04-12T14:37:33;14.10;99.90
8711;DHT22;4392;47.400;8.062;2023-04-12T14:40:05;14.20;99.90
8711;DHT22;4392;47.400;8.062;2023-04-12T14:42:32;14.20;99.90
8711;DHT22;4392;47.400;8.062;2023-04-12T14:44:59;14.30;99.90
8711;DHT22;4392;47.400;8.062;2023-04-12T14:47:30;14.70;99.90
8711;DHT22;4392;47.400;8.062;2023-04-12T14:49:56;15.00;99.90
8711;DHT22;4392;47.400;8.062;2023-04-12T14:52:25;14.60;99.90
8711;DHT22;4392;47.400;8.062;2023-04-12T14:54:55;14.30;99.90
8711;DHT22;4392;47.400;8.062;2023-04-12T14:57:23;13.90;99.90
8711;DHT22;4392;47.400;8.062;2023-04-12T14:59:49;13.50;99.90
8711;DHT22;4392;47.400;8.062;2023-04-12T15:02:21;13.40;99.90
8711;DHT22;4392;47.400;8.062;2023-04-12T15:04:47;13.20;99.90
8711;DHT22;4392;47.400;8.062;2023-04-12T15:07:22;13.30;99.90
8711;DHT22;4392;47.400;8.062;2023-04-12T15:09:47;13.40;99.90
8711;DHT22;4392;47.400;8.062;2023-04-12T15:12:13;13.40;99.90
8711;DHT22;4392;47.400;8.062;2023-04-12T15:14:44;13.40;99.90
8711;DHT22;4392;47.400;8.062;2023-04-12T15:17:12;13.40;99.90
8711;DHT22;4392;47.400;8.062;2023-04-12T15:19:38;13.50;99.90
8711;DHT22;4392;47.400;8.062;2023-04-12T15:22:08;13.50;99.90
8711;DHT22;4392;47.400;8.062;2023-04-12T15:24:34;13.50;99.90
8711;DHT22;4392;47.400;8.062;2023-04-12T15:26:59;13.40;99.90
8711;DHT22;4392;47.400;8.062;2023-04-12T15:29:27;13.50;99.90
8711;DHT22;4392;47.400;8.062;2023-04-12T15:31:56;13.50;99.90
8711;DHT22;4392;47.400;8.062;2023-04-12T15:34:22;13.40;99.90
8711;DHT22;4392;47.400;8.062;2023-04-12T15:36:49;13.40;99.90
8711;DHT22;4392;47.400;8.062;2023-04-12T15:39:17;13.40;99.90
8711;DHT22;4392;47.400;8.062;2023-04-12T15:41:49;13.30;99.90
8711;DHT22;4392;47.400;8.062;2023-04-12T15:44:15;13.30;99.90
8711;DHT22;4392;47.400;8.062;2023-04-12T15:46:41;13.40;99.90
8711;DHT22;4392;47.400;8.062;2023-04-12T15:49:10;13.20;99.90
8711;DHT22;4392;47.400;8.062;2023-04-12T15:51:37;13.20;99.90
8711;DHT22;4392;47.400;8.062;2023-04-12T15:54:03;13.00;99.90
8711;DHT22;4392;47.400;8.062;2023-04-12T15:56:31;13.10;99.90
8711;DHT22;4392;47.400;8.062;2023-04-12T15:59:00;12.90;99.90
8711;DHT22;4392;47.400;8.062;2023-04-12T16:01:26;12.80;99.90
8711;DHT22;4392;47.400;8.062;2023-04-12T16:03:52;12.60;99.90
8711;DHT22;4392;47.400;8.062;2023-04-12T16:06:19;12.60;99.90
8711;DHT22;4392;47.400;8.062;2023-04-12T16:08:52;12.50;99.90
8711;DHT22;4392;47.400;8.062;2023-04-12T16:11:20;12.70;99.90
8711;DHT22;4392;47.400;8.062;2023-04-12T16:13:51;12.60;99.90
8711;DHT22;4392;47.400;8.062;2023-04-12T16:16:21;12.80;99.90
8711;DHT22;4392;47.400;8.062;2023-04-12T16:18:49;12.90;99.90
8711;DHT22;4392;47.400;8.062;2023-04-12T16:21:17;12.80;99.90
8711;DHT22;4392;47.400;8.062;2023-04-12T16:23:49;12.80;99.90
8711;DHT22;4392;47.400;8.062;2023-04-12T16:26:17;12.90;99.90
8711;DHT22;4392;47.400;8.062;2023-04-12T16:28:51;12.90;99.90
8711;DHT22;4392;47.400;8.062;2023-04-12T16:31:18;12.90;99.90
8711;DHT22;4392;47.400;8.062;2023-04-12T16:33:49;12.80;99.90